sensor_id;sensor_type;location;lat;lon;timestamp;temperature;humidity
66094;DHT22;52876;49.394;10.892;2022-08-21T00:00:59;16.40;99.90
66094;DHT22;52876;49.394;10.892;2022-08-21T00:03:28;16.30;99.90
66094;DHT22;52876;49.394;10.892;2022-08-21T00:05:55;16.70;99.90
66094;DHT22;52876;49.394;10.892;2022-08-21T00:08:22;16.30;99.90
66094;DHT22;52876;49.394;10.892;2022-08-21T00:10:50;16.30;99.90
66094;DHT22;52876;49.394;10.892;2022-08-21T00:13:18;16.20;99.90
66094;DHT22;52876;49.394;10.892;2022-08-21T00:15:49;16.30;99.90
66094;DHT22;52876;49.394;10.892;2022-08-21T00:18:16;16.40;99.90
66094;DHT22;52876;49.394;10.892;2022-08-21T00:20:45;16.30;99.90
66094;DHT22;52876;49.394;10.892;2022-08-21T00:23:14;16.20;99.90
66094;DHT22;52876;49.394;10.892;2022-08-21T00:25:42;16.10;99.90
66094;DHT22;52876;49.394;10.892;2022-08-21T00:28:10;16.10;99.90
66094;DHT22;52876;49.394;10.892;2022-08-21T00:30:39;16.10;99.90
66094;DHT22;52876;49.394;10.892;2022-08-21T00:33:08;16.10;99.90
66094;DHT22;52876;49.394;10.892;2022-08-21T00:35:38;15.90;99.90
66094;DHT22;52876;49.394;10.892;2022-08-21T00:38:07;15.90;99.90
66094;DHT22;52876;49.394;10.892;2022-08-21T00:40:38;15.80;99.90
66094;DHT22;52876;49.394;10.892;2022-08-21T00:43:08;15.90;99.90
66094;DHT22;52876;49.394;10.892;2022-08-21T00:45:36;15.80;99.90
66094;DHT22;52876;49.394;10.892;2022-08-21T00:48:04;15.90;99.90
66094;DHT22;52876;49.394;10.892;2022-08-21T00:50:35;15.80;99.90
66094;DHT22;52876;49.394;10.892;2022-08-21T00:53:06;15.80;99.90
66094;DHT22;52876;49.394;10.892;2022-08-21T00:55:36;15.90;99.90
66094;DHT22;52876;49.394;10.892;2022-08-21T00:58:06;15.90;99.90
66094;DHT22;52876;49.394;10.892;2022-08-21T01:00:37;15.80;99.90
66094;DHT22;52876;49.394;10.892;2022-08-21T01:03:08;16.00;99.90
66094;DHT22;52876;49.394;10.892;2022-08-21T01:05:39;15.90;99.90
66094;DHT22;52876;49.394;10.892;2022-08-21T01:08:08;15.90;99.90
66094;DHT22;52876;49.394;10.892;2022-08-21T01:10:36;16.00;99.90
66094;DHT22;52876;49.394;10.892;2022-08-21T01:13:04;15.90;99.90
66094;DHT22;52876;49.394;10.892;2022-08-21T01:15:36;16.00;99.90
66094;DHT22;52876;49.394;10.892;2022-08-21T01:18:04;16.00;99.90
66094;DHT22;52876;49.394;10.892;2022-08-21T01:20:33;16.00;99.90
66094;DHT22;52876;49.394;10.892;2022-08-21T01:23:02;15.90;99.90
66094;DHT22;52876;49.394;10.892;2022-08-21T01:25:30;15.80;99.90
66094;DHT22;52876;49.394;10.892;2022-08-21T01:28:01;15.70;99.90
66094;DHT22;52876;49.394;10.892;2022-08-21T01:32:56;15.70;99.90
66094;DHT22;52876;49.394;10.892;2022-08-21T01:35:24;15.60;99.90
66094;DHT22;52876;49.394;10.892;2022-08-21T01:37:51;15.80;99.90
66094;DHT22;52876;49.394;10.892;2022-08-21T01:40:20;15.60;99.90
66094;DHT22;52876;49.394;10.892;2022-08-21T01:45:15;15.60;99.90
66094;DHT22;52876;49.394;10.892;2022-08-21T01:47:44;15.60;99.90
66094;DHT22;52876;49.394;10.892;2022-08-21T01:50:14;15.50;99.90
66094;DHT22;52876;49.394;10.892;2022-08-21T01:52:42;15.40;99.90
66094;DHT22;52876;49.394;10.892;2022-08-21T01:55:12;15.00;99.90
66094;DHT22;52876;49.394;10.892;2022-08-21T01:57:41;15.40;99.90
66094;DHT22;52876;49.394;10.892;2022-08-21T02:00:12;15.40;99.90
66094;DHT22;52876;49.394;10.892;2022-08-21T02:02:41;15.40;99.90
66094;DHT22;52876;49.394;10.892;2022-08-21T02:05:09;15.30;99.90
66094;DHT22;52876;49.394;10.892;2022-08-21T02:07:37;16.30;99.90
66094;DHT22;52876;49.394;10.892;2022-08-21T02:10:06;15.40;99.90
66094;DHT22;52876;49.394;10.892;2022-08-21T02:12:35;15.20;99.90
66094;DHT22;52876;49.394;10.892;2022-08-21T02:15:06;15.30;99.90
66094;DHT22;52876;49.394;10.892;2022-08-21T02:17:39;15.10;99.90
66094;DHT22;52876;49.394;10.892;2022-08-21T02:20:08;15.20;99.90
66094;DHT22;52876;49.394;10.892;2022-08-21T02:22:36;15.20;99.90
66094;DHT22;52876;49.394;10.892;2022-08-21T02:25:04;15.30;99.90
66094;DHT22;52876;49.394;10.892;2022-08-21T02:27:38;15.20;99.90
66094;DHT22;52876;49.394;10.892;2022-08-21T02:30:08;15.20;99.90
66094;DHT22;52876;49.394;10.892;2022-08-21T02:35:04;15.30;99.90
66094;DHT22;52876;49.394;10.892;2022-08-21T02:37:32;15.10;99.90
66094;DHT22;52876;49.394;10.892;2022-08-21T02:42:28;15.10;99.90
66094;DHT22;52876;49.394;10.892;2022-08-21T02:44:55;15.10;99.90
66094;DHT22;52876;49.394;10.892;2022-08-21T02:47:23;15.00;99.90
66094;DHT22;52876;49.394;10.892;2022-08-21T02:49:52;14.90;99.90
66094;DHT22;52876;49.394;10.892;2022-08-21T02:52:19;15.00;99.90
66094;DHT22;52876;49.394;10.892;2022-08-21T02:54:46;14.90;99.90
66094;DHT22;52876;49.394;10.892;2022-08-21T02:59:41;14.90;99.90
66094;DHT22;52876;49.394;10.892;2022-08-21T03:02:08;14.80;99.90
66094;DHT22;52876;49.394;10.892;2022-08-21T03:04:37;14.80;99.90
66094;DHT22;52876;49.394;10.892;2022-08-21T03:07:04;14.70;99.90
66094;DHT22;52876;49.394;10.892;2022-08-21T03:11:59;14.60;99.90
66094;DHT22;52876;49.394;10.892;2022-08-21T03:14:26;14.70;99.90
66094;DHT22;52876;49.394;10.892;2022-08-21T03:16:54;14.60;99.90
66094;DHT22;52876;49.394;10.892;2022-08-21T03:19:21;14.70;99.90
66094;DHT22;52876;49.394;10.892;2022-08-21T03:21:49;14.80;99.90
66094;DHT22;52876;49.394;10.892;2022-08-21T03:24:16;14.80;99.90
66094;DHT22;52876;49.394;10.892;2022-08-21T03:31:39;15.90;99.90
66094;DHT22;52876;49.394;10.892;2022-08-21T03:34:07;14.80;99.90
66094;DHT22;52876;49.394;10.892;2022-08-21T03:39:04;14.70;99.90
66094;DHT22;52876;49.394;10.892;2022-08-21T03:41:31;14.70;99.90
66094;DHT22;52876;49.394;10.892;2022-08-21T03:43:58;14.70;99.90
66094;DHT22;52876;49.394;10.892;2022-08-21T03:48:53;14.70;99.90
66094;DHT22;52876;49.394;10.892;2022-08-21T03:51:20;14.70;99.90
66094;DHT22;52876;49.394;10.892;2022-08-21T03:53:47;14.80;99.90
66094;DHT22;52876;49.394;10.892;2022-08-21T03:56:15;11.70;99.90
66094;DHT22;52876;49.394;10.892;2022-08-21T03:58:43;14.70;99.90
66094;DHT22;52876;49.394;10.892;2022-08-21T04:01:10;14.70;99.90
66094;DHT22;52876;49.394;10.892;2022-08-21T04:06:07;14.70;99.90
66094;DHT22;52876;49.394;10.892;2022-08-21T04:08:34;14.70;99.90
66094;DHT22;52876;49.394;10.892;2022-08-21T04:11:01;14.80;99.90
66094;DHT22;52876;49.394;10.892;2022-08-21T04:13:30;14.60;99.90
66094;DHT22;52876;49.394;10.892;2022-08-21T04:15:57;14.80;99.90
66094;DHT22;52876;49.394;10.892;2022-08-21T04:18:24;14.70;99.90
66094;DHT22;52876;49.394;10.892;2022-08-21T04:20:52;14.60;99.90
66094;DHT22;52876;49.394;10.892;2022-08-21T04:23:21;14.50;99.90
66094;DHT22;52876;49.394;10.892;2022-08-21T04:25:49;14.50;99.90
66094;DHT22;52876;49.394;10.892;2022-08-21T04:28:16;14.50;99.90
66094;DHT22;52876;49.394;10.892;2022-08-21T04:30:45;14.60;99.90
66094;DHT22;52876;49.394;10.892;2022-08-21T04:33:13;14.60;99.90
66094;DHT22;52876;49.394;10.892;2022-08-21T04:35:40;11.90;99.90
66094;DHT22;52876;49.394;10.892;2022-08-21T04:40:36;14.60;99.90
66094;DHT22;52876;49.394;10.892;2022-08-21T04:43:05;14.70;99.90
66094;DHT22;52876;49.394;10.892;2022-08-21T04:45:35;14.90;99.90
66094;DHT22;52876;49.394;10.892;2022-08-21T04:48:06;14.80;99.90
66094;DHT22;52876;49.394;10.892;2022-08-21T04:50:37;15.00;99.90
66094;DHT22;52876;49.394;10.892;2022-08-21T04:53:08;14.90;99.90
66094;DHT22;52876;49.394;10.892;2022-08-21T04:58:05;15.00;99.90
66094;DHT22;52876;49.394;10.892;2022-08-21T05:00:34;15.00;99.90
66094;DHT22;52876;49.394;10.892;2022-08-21T05:03:04;15.10;99.90
66094;DHT22;52876;49.394;10.892;2022-08-21T05:05:32;15.00;99.90
66094;DHT22;52876;49.394;10.892;2022-08-21T05:08:01;15.30;99.90
66094;DHT22;52876;49.394;10.892;2022-08-21T05:10:30;15.00;99.90
66094;DHT22;52876;49.394;10.892;2022-08-21T05:12:59;15.00;99.90
66094;DHT22;52876;49.394;10.892;2022-08-21T05:15:26;15.60;99.90
66094;DHT22;52876;49.394;10.892;2022-08-21T05:17:53;15.00;99.90
66094;DHT22;52876;49.394;10.892;2022-08-21T05:20:22;15.00;99.90
66094;DHT22;52876;49.394;10.892;2022-08-21T05:30:13;14.90;99.90
66094;DHT22;52876;49.394;10.892;2022-08-21T05:37:37;14.90;99.90
66094;DHT22;52876;49.394;10.892;2022-08-21T05:40:06;15.10;99.90
66094;DHT22;52876;49.394;10.892;2022-08-21T05:47:31;15.50;99.90
66094;DHT22;52876;49.394;10.892;2022-08-21T05:49:58;12.00;99.90
66094;DHT22;52876;49.394;10.892;2022-08-21T05:54:54;12.70;99.90
66094;DHT22;52876;49.394;10.892;2022-08-21T06:02:17;15.00;99.90
66094;DHT22;52876;49.394;10.892;2022-08-21T06:04:44;14.90;99.90
66094;DHT22;52876;49.394;10.892;2022-08-21T06:07:12;17.40;99.90
66094;DHT22;52876;49.394;10.892;2022-08-21T06:12:11;15.30;99.90
66094;DHT22;52876;49.394;10.892;2022-08-21T06:17:09;15.00;99.90
66094;DHT22;52876;49.394;10.892;2022-08-21T06:19:36;15.00;99.90
66094;DHT22;52876;49.394;10.892;2022-08-21T06:22:04;14.90;99.90
66094;DHT22;52876;49.394;10.892;2022-08-21T06:24:32;15.10;99.90
66094;DHT22;52876;49.394;10.892;2022-08-21T06:27:04;15.20;99.90
66094;DHT22;52876;49.394;10.892;2022-08-21T06:29:33;15.00;99.90
66094;DHT22;52876;49.394;10.892;2022-08-21T06:46:47;15.20;99.90
66094;DHT22;52876;49.394;10.892;2022-08-21T06:49:14;13.90;99.90
66094;DHT22;52876;49.394;10.892;2022-08-21T06:56:37;15.60;99.90
66094;DHT22;52876;49.394;10.892;2022-08-21T06:59:04;15.50;99.90
66094;DHT22;52876;49.394;10.892;2022-08-21T07:01:32;15.60;99.90
66094;DHT22;52876;49.394;10.892;2022-08-21T07:04:00;15.60;99.90
66094;DHT22;52876;49.394;10.892;2022-08-21T07:06:27;16.10;99.90
66094;DHT22;52876;49.394;10.892;2022-08-21T07:08:53;16.10;99.90
66094;DHT22;52876;49.394;10.892;2022-08-21T07:11:23;16.20;99.90
66094;DHT22;52876;49.394;10.892;2022-08-21T07:13:50;16.50;99.90
66094;DHT22;52876;49.394;10.892;2022-08-21T07:16:17;16.50;99.90
66094;DHT22;52876;49.394;10.892;2022-08-21T07:21:11;16.30;99.90
66094;DHT22;52876;49.394;10.892;2022-08-21T07:23:42;16.60;99.90
66094;DHT22;52876;49.394;10.892;2022-08-21T07:26:11;16.60;99.90
66094;DHT22;52876;49.394;10.892;2022-08-21T07:28:38;16.40;99.90
66094;DHT22;52876;49.394;10.892;2022-08-21T07:31:05;17.40;99.90
66094;DHT22;52876;49.394;10.892;2022-08-21T07:33:33;16.90;99.90
66094;DHT22;52876;49.394;10.892;2022-08-21T07:36:00;17.10;99.90
66094;DHT22;52876;49.394;10.892;2022-08-21T07:38:27;17.00;99.90
66094;DHT22;52876;49.394;10.892;2022-08-21T07:40:56;16.80;99.90
66094;DHT22;52876;49.394;10.892;2022-08-21T07:45:49;16.70;99.90
66094;DHT22;52876;49.394;10.892;2022-08-21T07:48:15;16.90;99.90
66094;DHT22;52876;49.394;10.892;2022-08-21T07:50:43;14.80;99.90
66094;DHT22;52876;49.394;10.892;2022-08-21T07:53:09;17.00;99.90
66094;DHT22;52876;49.394;10.892;2022-08-21T07:55:37;14.20;99.90
66094;DHT22;52876;49.394;10.892;2022-08-21T07:58:03;17.40;99.90
66094;DHT22;52876;49.394;10.892;2022-08-21T08:00:30;17.20;99.90
66094;DHT22;52876;49.394;10.892;2022-08-21T08:02:56;17.30;99.90
66094;DHT22;52876;49.394;10.892;2022-08-21T08:05:28;17.10;99.90
66094;DHT22;52876;49.394;10.892;2022-08-21T08:07:54;18.70;99.90
66094;DHT22;52876;49.394;10.892;2022-08-21T08:12:51;17.40;99.90
66094;DHT22;52876;49.394;10.892;2022-08-21T08:15:20;18.40;99.90
66094;DHT22;52876;49.394;10.892;2022-08-21T08:17:48;18.60;99.90
66094;DHT22;52876;49.394;10.892;2022-08-21T08:20:15;18.10;99.90
66094;DHT22;52876;49.394;10.892;2022-08-21T08:22:44;17.60;99.90
66094;DHT22;52876;49.394;10.892;2022-08-21T08:25:12;17.90;99.90
66094;DHT22;52876;49.394;10.892;2022-08-21T08:27:40;18.20;99.90
66094;DHT22;52876;49.394;10.892;2022-08-21T08:30:10;18.30;99.90
66094;DHT22;52876;49.394;10.892;2022-08-21T08:32:38;18.60;99.90
66094;DHT22;52876;49.394;10.892;2022-08-21T08:35:05;17.90;99.90
66094;DHT22;52876;49.394;10.892;2022-08-21T08:37:33;18.40;99.90
66094;DHT22;52876;49.394;10.892;2022-08-21T08:40:00;18.00;99.90
66094;DHT22;52876;49.394;10.892;2022-08-21T08:42:31;18.30;99.90
66094;DHT22;52876;49.394;10.892;2022-08-21T08:45:01;18.00;99.90
66094;DHT22;52876;49.394;10.892;2022-08-21T08:47:33;18.00;99.90
66094;DHT22;52876;49.394;10.892;2022-08-21T08:50:04;18.00;99.90
66094;DHT22;52876;49.394;10.892;2022-08-21T08:52:34;18.10;99.90
66094;DHT22;52876;49.394;10.892;2022-08-21T08:55:03;17.90;99.90
66094;DHT22;52876;49.394;10.892;2022-08-21T08:57:32;18.20;99.90
66094;DHT22;52876;49.394;10.892;2022-08-21T09:00:04;18.30;99.90
66094;DHT22;52876;49.394;10.892;2022-08-21T09:02:38;18.70;99.90
66094;DHT22;52876;49.394;10.892;2022-08-21T09:05:05;19.30;99.90
66094;DHT22;52876;49.394;10.892;2022-08-21T09:07:40;19.50;99.90
66094;DHT22;52876;49.394;10.892;2022-08-21T09:10:13;19.80;99.90
66094;DHT22;52876;49.394;10.892;2022-08-21T09:12:52;21.20;99.90
66094;DHT22;52876;49.394;10.892;2022-08-21T09:15:29;23.00;99.90
66094;DHT22;52876;49.394;10.892;2022-08-21T09:18:12;24.40;99.90
66094;DHT22;52876;49.394;10.892;2022-08-21T09:20:47;24.30;99.90
66094;DHT22;52876;49.394;10.892;2022-08-21T09:23:22;24.40;99.90
66094;DHT22;52876;49.394;10.892;2022-08-21T09:25:55;23.30;99.90
66094;DHT22;52876;49.394;10.892;2022-08-21T09:30:55;22.90;99.90
66094;DHT22;52876;49.394;10.892;2022-08-21T09:33:22;22.70;99.90
66094;DHT22;52876;49.394;10.892;2022-08-21T09:35:52;22.20;99.90
66094;DHT22;52876;49.394;10.892;2022-08-21T09:38:28;22.40;99.90
66094;DHT22;52876;49.394;10.892;2022-08-21T09:41:01;22.20;99.90
66094;DHT22;52876;49.394;10.892;2022-08-21T09:46:05;26.80;99.90
66094;DHT22;52876;49.394;10.892;2022-08-21T09:48:42;28.80;99.90
66094;DHT22;52876;49.394;10.892;2022-08-21T09:53:39;23.20;99.90
66094;DHT22;52876;49.394;10.892;2022-08-21T09:56:28;24.10;99.90
66094;DHT22;52876;49.394;10.892;2022-08-21T10:46:53;33.30;91.70
66094;DHT22;52876;49.394;10.892;2022-08-21T10:49:25;33.10;92.50
66094;DHT22;52876;49.394;10.892;2022-08-21T10:52:01;32.90;90.60
66094;DHT22;52876;49.394;10.892;2022-08-21T10:54:35;32.80;88.40
66094;DHT22;52876;49.394;10.892;2022-08-21T10:57:12;34.30;89.60
66094;DHT22;52876;49.394;10.892;2022-08-21T10:59:48;33.50;88.90
66094;DHT22;52876;49.394;10.892;2022-08-21T11:02:23;33.50;88.90
66094;DHT22;52876;49.394;10.892;2022-08-21T11:04:57;29.90;90.70
66094;DHT22;52876;49.394;10.892;2022-08-21T11:07:28;31.80;92.00
66094;DHT22;52876;49.394;10.892;2022-08-21T11:10:00;32.40;91.00
66094;DHT22;52876;49.394;10.892;2022-08-21T11:12:34;32.90;91.50
66094;DHT22;52876;49.394;10.892;2022-08-21T11:15:07;32.50;87.40
66094;DHT22;52876;49.394;10.892;2022-08-21T11:18:07;31.60;90.20
66094;DHT22;52876;49.394;10.892;2022-08-21T11:20:40;31.90;90.70
66094;DHT22;52876;49.394;10.892;2022-08-21T11:23:13;30.20;88.10
66094;DHT22;52876;49.394;10.892;2022-08-21T11:25:45;30.40;88.00
66094;DHT22;52876;49.394;10.892;2022-08-21T11:28:20;31.60;86.70
66094;DHT22;52876;49.394;10.892;2022-08-21T11:30:58;32.50;80.70
66094;DHT22;52876;49.394;10.892;2022-08-21T11:33:41;31.80;84.90
66094;DHT22;52876;49.394;10.892;2022-08-21T11:36:17;33.20;81.00
66094;DHT22;52876;49.394;10.892;2022-08-21T11:38:49;33.20;77.50
66094;DHT22;52876;49.394;10.892;2022-08-21T11:41:25;33.50;76.50
66094;DHT22;52876;49.394;10.892;2022-08-21T11:44:00;33.80;73.80
66094;DHT22;52876;49.394;10.892;2022-08-21T11:46:36;34.10;77.80
66094;DHT22;52876;49.394;10.892;2022-08-21T11:49:19;34.90;72.30
66094;DHT22;52876;49.394;10.892;2022-08-21T11:51:53;35.50;70.60
66094;DHT22;52876;49.394;10.892;2022-08-21T11:54:26;35.80;72.00
66094;DHT22;52876;49.394;10.892;2022-08-21T11:57:00;35.80;67.50
66094;DHT22;52876;49.394;10.892;2022-08-21T11:59:35;31.90;65.10
66094;DHT22;52876;49.394;10.892;2022-08-21T12:02:08;33.40;70.60
66094;DHT22;52876;49.394;10.892;2022-08-21T12:04:45;33.60;72.30
66094;DHT22;52876;49.394;10.892;2022-08-21T12:07:14;33.30;73.30
66094;DHT22;52876;49.394;10.892;2022-08-21T12:12:25;31.70;78.50
66094;DHT22;52876;49.394;10.892;2022-08-21T12:15:05;34.00;75.10
66094;DHT22;52876;49.394;10.892;2022-08-21T12:17:37;34.60;68.90
66094;DHT22;52876;49.394;10.892;2022-08-21T12:20:18;34.10;71.80
66094;DHT22;52876;49.394;10.892;2022-08-21T12:22:52;34.10;71.40
66094;DHT22;52876;49.394;10.892;2022-08-21T12:25:20;32.70;71.50
66094;DHT22;52876;49.394;10.892;2022-08-21T12:27:49;32.00;73.30
66094;DHT22;52876;49.394;10.892;2022-08-21T12:30:22;32.10;74.40
66094;DHT22;52876;49.394;10.892;2022-08-21T12:33:02;31.50;77.00
66094;DHT22;52876;49.394;10.892;2022-08-21T12:35:33;32.20;76.10
66094;DHT22;52876;49.394;10.892;2022-08-21T12:38:09;32.50;72.60
66094;DHT22;52876;49.394;10.892;2022-08-21T12:40:40;31.80;73.40
66094;DHT22;52876;49.394;10.892;2022-08-21T12:43:13;31.60;73.20
66094;DHT22;52876;49.394;10.892;2022-08-21T12:45:42;30.70;75.30
66094;DHT22;52876;49.394;10.892;2022-08-21T12:48:13;29.90;75.40
66094;DHT22;52876;49.394;10.892;2022-08-21T12:53:12;28.80;85.40
66094;DHT22;52876;49.394;10.892;2022-08-21T12:58:17;31.00;75.70
66094;DHT22;52876;49.394;10.892;2022-08-21T13:00:49;30.80;76.00
66094;DHT22;52876;49.394;10.892;2022-08-21T13:08:14;31.20;76.70
66094;DHT22;52876;49.394;10.892;2022-08-21T13:13:11;31.40;74.30
66094;DHT22;52876;49.394;10.892;2022-08-21T13:15:41;31.90;73.90
66094;DHT22;52876;49.394;10.892;2022-08-21T13:20:39;30.40;75.80
66094;DHT22;52876;49.394;10.892;2022-08-21T13:23:07;29.90;79.70
66094;DHT22;52876;49.394;10.892;2022-08-21T13:25:44;30.00;82.80
66094;DHT22;52876;49.394;10.892;2022-08-21T13:28:12;31.00;79.30
66094;DHT22;52876;49.394;10.892;2022-08-21T13:30:42;31.80;76.60
66094;DHT22;52876;49.394;10.892;2022-08-21T13:33:11;32.50;74.30
66094;DHT22;52876;49.394;10.892;2022-08-21T13:35:47;34.00;71.00
66094;DHT22;52876;49.394;10.892;2022-08-21T13:40:46;34.00;68.90
66094;DHT22;52876;49.394;10.892;2022-08-21T13:43:17;34.80;65.90
66094;DHT22;52876;49.394;10.892;2022-08-21T13:45:47;34.20;65.40
66094;DHT22;52876;49.394;10.892;2022-08-21T13:48:14;33.40;65.70
66094;DHT22;52876;49.394;10.892;2022-08-21T13:50:41;32.60;68.90
66094;DHT22;52876;49.394;10.892;2022-08-21T13:53:21;33.10;67.60
66094;DHT22;52876;49.394;10.892;2022-08-21T13:55:51;33.70;64.60
66094;DHT22;52876;49.394;10.892;2022-08-21T13:58:24;34.50;64.60
66094;DHT22;52876;49.394;10.892;2022-08-21T14:03:27;32.70;61.50
66094;DHT22;52876;49.394;10.892;2022-08-21T14:05:54;32.50;66.90
66094;DHT22;52876;49.394;10.892;2022-08-21T14:08:25;32.10;66.60
66094;DHT22;52876;49.394;10.892;2022-08-21T14:10:53;34.40;62.90
66094;DHT22;52876;49.394;10.892;2022-08-21T14:13:29;33.30;60.20
66094;DHT22;52876;49.394;10.892;2022-08-21T14:16:00;33.40;61.00
66094;DHT22;52876;49.394;10.892;2022-08-21T14:21:03;32.60;63.40
66094;DHT22;52876;49.394;10.892;2022-08-21T14:26:01;33.40;62.40
66094;DHT22;52876;49.394;10.892;2022-08-21T14:28:30;33.90;62.90
66094;DHT22;52876;49.394;10.892;2022-08-21T14:33:26;33.70;59.40
66094;DHT22;52876;49.394;10.892;2022-08-21T14:38:22;31.10;58.40
66094;DHT22;52876;49.394;10.892;2022-08-21T14:40:51;33.00;59.70
66094;DHT22;52876;49.394;10.892;2022-08-21T14:43:34;34.20;57.10
66094;DHT22;52876;49.394;10.892;2022-08-21T15:00:44;30.60;62.70
